Arsenal, Utah
Current Conditions -  °F | °C
As of 10:58 PM on Saturday 25 Oct 2014 (Local Time) from KHIF Reporting Station
Clear Clear  
Wind Chill: 64°   Ceiling: Unl
Heat Index: 64°   Visibility: 10mi
Dew Point: 41°   Wind: 17mph
Humidity: 43%   Direction: 170°S
Pressure: 29.92"   Gusts: NA
Location:  41.123°N, 112.063°W
Report Text: KHIF 260458Z AUTO 17015KT 10SM CLR 18/05 A2992 RMK AO2 SLP079 T01750048
Loading
Personal Weather Stations






























Interactive Weather Map
Tropical Storm Tracking
New forecast layout! Learn more

10-Day Weather Forecast

Advertisements
Track Severe Weather on mobile